Goshen, Arkansas
Current Conditions -  °F | °C
As of 11:48 AM on Saturday 25 Oct 2014 (Local Time) from KASG Reporting Station
Clear Clear  
Wind Chill: 75°   Ceiling: Unl
Heat Index: 75°   Visibility: 10mi
Dew Point: 63°   Wind: 8mph
Humidity: 65%   Direction: 230°SW
Pressure: 30.14"   Gusts: NA
Location:  36.1°N, 93.99°W
Report Text: KASG 251648Z 23007KT 10SM SKC 24/17 A3014
Loading
Personal Weather Stations






























Interactive Weather Map
Tropical Storm Tracking
New forecast layout! Learn more

10-Day Weather Forecast

Advertisements
Track Severe Weather on mobile